Messwerte Kermanshah

Temperatur

Temperatur
°C
1603078200 7.00 7.00 6
1603081800 8.00 8.00 10
1603085400 9.00 9.00 14
1603089000 10.00 10.00 18
1603092600 11.00 11.00 21
1603096200 12.00 12.00 22
1603099800 13.00 13.00
1603103400 14.00 14.00
1603107000 15.00 15.00 27
1603110600 16.00 16.00 26
1603114200 17.00 17.00 25
1603117800 18.00 18.00 22
1603121400 19.00 19.00 19
1603125000 20.00 20.00 19
1603128600 21.00 21.00 18
1603132200 22.00 22.00 17
1603135800 23.00 23.00 16
1603139400 0.00 0.00 14
1603143000 1.00 1.00 9
1603146600 2.00 2.00 8
1603150200 3.00 3.00
1603153800 4.00 4.00 7
1603157400 5.00 5.00 6
1603161000 6.00 6.00 5

Aktuellste Messwerte

Wettercharakter
Wetter: meist klar
Temperatur
5 °C
Feuchtigkeit
25 %
Wind
5 km/hWindrichtung: Ost
Luftdruck
1022 hPa
Messzeit: 20. Oktober 2020, 6.30Datenquelle: METAR

Weitere Messstationen in der Nähe

Messstation Temperatur Entfernung
Khorramabad - 145 km
Silemani 10 °C 208 km
Bagdad 20 °C 291 km
Zanjan 5 °C 295 km
Ghazvin 9 °C 342 km
Ahwaz 14 °C 357 km
Nadschaf 22 °C 364 km

Wind

Windrichtung Böen Mittelwind
° km/h km/h
1603078200 7.00 6.00 - 7.00 0
1603081800 8.00 7.00 - 8.00 0
1603085400 9.00 8.00 - 9.00 0
1603089000 10.00 9.00 - 10.00 120° 5
1603092600 11.00 10.00 - 11.00 90° 10
1603096200 12.00 11.00 - 12.00 170° 10
1603099800 13.00 12.00 - 13.00
1603103400 14.00 13.00 - 14.00
1603107000 15.00 14.00 - 15.00 300° 10
1603110600 16.00 15.00 - 16.00 300° 15
1603114200 17.00 16.00 - 17.00 310° 15
1603117800 18.00 17.00 - 18.00 310° 10
1603121400 19.00 18.00 - 19.00 240° 5
1603125000 20.00 19.00 - 20.00 290° 15
1603128600 21.00 20.00 - 21.00 300° 10
1603132200 22.00 21.00 - 22.00 310° 10
1603135800 23.00 22.00 - 23.00 290° 20
1603139400 0.00 23.00 - 0.00 0
1603143000 1.00 0.00 - 1.00 110° 5
1603146600 2.00 1.00 - 2.00 100° 5
1603150200 3.00 2.00 - 3.00
1603153800 4.00 3.00 - 4.00 0
1603157400 5.00 4.00 - 5.00 0
1603161000 6.00 5.00 - 6.00 130° 5

Ihre Wetterstation

Fehlt Ihre Wetterstation auf unserem Portal?

Schreiben Sie an network@meteonews.ch

Klima

Wann ist es am wärmsten? Wann regnet es am wenigsten? Unsere Klimadaten geben Auskunft.